WetterOnline ( https://www.wetteronline.de )

Wetter aktuell Bellavista

Aktuelles Wetter: Capo Bellavista (150m)

6-stündlich | Neueste Meldungen
Ortszeit Temperatur Wetter
Fr, 24.01. 13:00 14.6° C wolkig
Fr, 24.01. 7:00 13.6° C bedeckt
Fr, 24.01. 1:00 13.2° C bedeckt
Do, 23.01. 19:00 13.8° C bedeckt
Do, 23.01. 13:00 15.0° C bedeckt
Do, 23.01. 7:00 13.4° C wolkig
Do, 23.01. 1:00 12.6° C leicht bewölkt
Mi, 22.01. 19:00 12.6° C bedeckt
Ortszeit Temperatur Wetter
Fr, 24.01. 16:00 15.0° C leicht bewölkt
Fr, 24.01. 15:55 15° C leicht bewölkt
Fr, 24.01. 15:00 15.4° C leicht bewölkt
Fr, 24.01. 14:55 15° C leicht bewölkt
Fr, 24.01. 14:00 14.6° C leicht bewölkt
Fr, 24.01. 13:55 15° C leicht bewölkt
Fr, 24.01. 13:00 14.6° C wolkig
Fr, 24.01. 12:55 15° C leicht bewölkt
Fr, 24.01. 12:00 14.4° C bedeckt
Ortszeit Relative Feuchte Sichtweite
Fr, 24.01. 13:00 98% 8 km
Fr, 24.01. 7:00 94% 7 km
Fr, 24.01. 1:00 89% 4 km
Do, 23.01. 19:00 98% 4.0 km
Do, 23.01. 13:00 90% 4.0 km
Do, 23.01. 7:00 96% 12 km
Do, 23.01. 1:00 100% 8 km
Mi, 22.01. 19:00 98% 4.0 km
Ortszeit Relative Feuchte Sichtweite
Fr, 24.01. 16:00 86% 10 km
Fr, 24.01. 15:55 88% >10 km
Fr, 24.01. 15:00 88% 4 km
Fr, 24.01. 14:55 88% 8 km
Fr, 24.01. 14:00 90% 4 km
Fr, 24.01. 13:55 88% 8 km
Fr, 24.01. 13:00 98% 8 km
Fr, 24.01. 12:55 94% 8 km
Fr, 24.01. 12:00 95% 4 km
Ortszeit Niederschlagsmenge Niederschlagsart
Fr, 24.01. 13:00 0.0 l/m2 in 6 Std. -
Fr, 24.01. 7:00 0.0 l/m2 in 12 Std. -
Fr, 24.01. 1:00 0.0 l/m2 in 6 Std. -
Do, 23.01. 19:00 0.0 l/m2 in 12 Std. -
Do, 23.01. 13:00 0.0 l/m2 in 6 Std. -
Do, 23.01. 7:00 0.0 l/m2 in 12 Std. -
Do, 23.01. 1:00 0.0 l/m2 in 6 Std. -
Mi, 22.01. 19:00 0.0 l/m2 in 12 Std. -
Ortszeit Niederschlagsmenge Niederschlagsart
Fr, 24.01. 16:00 keine Meldung -
Fr, 24.01. 15:55 keine Meldung -
Fr, 24.01. 15:00 keine Meldung -
Fr, 24.01. 14:55 keine Meldung -
Fr, 24.01. 14:00 keine Meldung -
Fr, 24.01. 13:55 keine Meldung -
Fr, 24.01. 13:00 keine Meldung -
Fr, 24.01. 12:55 keine Meldung -
Fr, 24.01. 12:00 keine Meldung -
Ortszeit Stärke Spitze Richtung
km/h Bft. km/h Grad Sektor
Fr, 24.01. 13:00 28 4 - 190° S
Fr, 24.01. 7:00 11 2 - 120° SO
Fr, 24.01. 1:00 13 3 - 260° W
Do, 23.01. 19:00 9 2 - 230° SW
Do, 23.01. 13:00 7 2 - 240° SW
Do, 23.01. 7:00 11 2 - 220° SW
Do, 23.01. 1:00 26 4 - 240° SW
Mi, 22.01. 19:00 7 2 - 350° N
Ortszeit Stärke Spitze Richtung
km/h Bft. km/h Grad Sektor
Fr, 24.01. 16:00 33 5 - 200° S
Fr, 24.01. 15:55 33 5 - 200° S
Fr, 24.01. 15:00 35 5 - 200° S
Fr, 24.01. 14:55 35 5 - 200° S
Fr, 24.01. 14:00 33 5 - 200° S
Fr, 24.01. 13:55 33 5 - 200° S
Fr, 24.01. 13:00 28 4 - 190° S
Fr, 24.01. 12:55 28 4 - 190° S
Fr, 24.01. 12:00 13 3 - 160° S
Ortszeit Untergrenze Bedeckung Gattung
total tief tief mittel hoch
Fr, 24.01. 13:00 300 m 7/8 5/8 Cu Ac -
Fr, 24.01. 7:00 450 m 8/8 8/8 Cu - -
Fr, 24.01. 1:00 300 m 8/8 8/8 Cu - -
Do, 23.01. 19:00 300 m 8/8 8/8 Cu - -
Do, 23.01. 13:00 300 m 8/8 8/8 Cu - -
Do, 23.01. 7:00 600 m 6/8 6/8 Cu - -
Do, 23.01. 1:00 540 m 5/8 5/8 Cu - -
Mi, 22.01. 19:00 180 m 8/8 8/8 Cu - -
Ortszeit Bedeckungsgrad in Achtel und Wolkenuntergrenze
Fr, 24.01. 16:00 1(300m) 3(2100m)
Fr, 24.01. 15:55 1-2(300m)
Fr, 24.01. 15:00 2(300m)
Fr, 24.01. 14:55 1-2(300m)
Fr, 24.01. 14:00 2(300m) 3(900m)
Fr, 24.01. 13:55 1-2(300m) 3-4(900m)
Fr, 24.01. 13:00 2(300m) 3(900m) 5(2100m)
Fr, 24.01. 12:55 1-2(300m) 3-4(900m)
Fr, 24.01. 12:00 2(300m) 3(600m) 7(900m)
Ortszeit Luftdruck NN (hPa) Tendenz (hPa in 3 Std.)
Fr, 24.01. 13:00 1022 - 1,0
Fr, 24.01. 7:00 1023 - 1,1
Fr, 24.01. 1:00 1025 0,0
Do, 23.01. 19:00 1025 0,0
Do, 23.01. 13:00 1026 - 0,2
Do, 23.01. 7:00 1025 - 1,3
Do, 23.01. 1:00 1028 - 0,2
Mi, 22.01. 19:00 1028 - 0,1
Ortszeit Luftdruck NN (hPa) Tendenz (hPa in 3 Std.)
Fr, 24.01. 16:00 1021 - 1,3
Fr, 24.01. 15:55 1020 keine Meldung
Fr, 24.01. 15:00 1021 - 1,6
Fr, 24.01. 14:55 1020 keine Meldung
Fr, 24.01. 14:00 1021 - 1,7
Fr, 24.01. 13:55 1021 keine Meldung
Fr, 24.01. 13:00 1022 - 1,0
Fr, 24.01. 12:55 1022 keine Meldung
Fr, 24.01. 12:00 1022 - 0,6
Ortszeit Schneehöhe (cm)
Fr, 24.01. 13:00 -
Fr, 24.01. 7:00 0
Fr, 24.01. 1:00 -
Do, 23.01. 19:00 -
Do, 23.01. 13:00 -
Do, 23.01. 7:00 0
Do, 23.01. 1:00 -
Mi, 22.01. 19:00 -
Ortszeit Schneehöhe (cm)
Fr, 24.01. 16:00 -
Fr, 24.01. 15:55 -
Fr, 24.01. 15:00 -
Fr, 24.01. 14:55 -
Fr, 24.01. 14:00 -
Fr, 24.01. 13:55 -
Fr, 24.01. 13:00 -
Fr, 24.01. 12:55 -
Fr, 24.01. 12:00 -
Link zu dieser Seite / Seite empfehlen

Das Wetter in ...